sensor_id;sensor_type;location;lat;lon;timestamp;pressure;altitude;pressure_sealevel;temperature;humidity
64675;BME280;51090;51.512;11.332;2023-04-28T00:00:27;99580.91;;;7.44;nan
64675;BME280;51090;51.512;11.332;2023-04-28T00:02:53;99583.91;;;7.49;nan
64675;BME280;51090;51.512;11.332;2023-04-28T00:05:20;99589.56;;;7.78;nan
64675;BME280;51090;51.512;11.332;2023-04-28T00:07:48;99583.97;;;7.81;nan
64675;BME280;51090;51.512;11.332;2023-04-28T00:10:14;99591.72;;;7.99;nan
64675;BME280;51090;51.512;11.332;2023-04-28T00:12:40;99566.94;;;7.59;nan
64675;BME280;51090;51.512;11.332;2023-04-28T00:15:07;99564.13;;;7.53;nan
64675;BME280;51090;51.512;11.332;2023-04-28T00:17:33;99560.94;;;7.41;nan
64675;BME280;51090;51.512;11.332;2023-04-28T00:19:59;99581.47;;;7.96;nan
64675;BME280;51090;51.512;11.332;2023-04-28T00:22:25;99556.69;;;7.56;nan
64675;BME280;51090;51.512;11.332;2023-04-28T00:24:51;99552.22;;;7.49;nan
64675;BME280;51090;51.512;11.332;2023-04-28T00:27:17;99549.09;;;7.45;nan
64675;BME280;51090;51.512;11.332;2023-04-28T00:29:43;99552.56;;;7.46;nan
64675;BME280;51090;51.512;11.332;2023-04-28T00:32:09;99548.59;;;7.41;nan
64675;BME280;51090;51.512;11.332;2023-04-28T00:34:35;99547.91;;;7.39;nan
64675;BME280;51090;51.512;11.332;2023-04-28T00:37:02;99547.28;;;7.37;nan
64675;BME280;51090;51.512;11.332;2023-04-28T00:39:29;99537.19;;;7.33;nan
64675;BME280;51090;51.512;11.332;2023-04-28T00:41:55;99533.06;;;7.30;nan
64675;BME280;51090;51.512;11.332;2023-04-28T00:44:22;99528.41;;;7.24;nan
64675;BME280;51090;51.512;11.332;2023-04-28T00:46:48;99519.53;;;7.17;nan
64675;BME280;51090;51.512;11.332;2023-04-28T00:49:15;99521.63;;;7.13;nan
64675;BME280;51090;51.512;11.332;2023-04-28T00:51:41;99510.06;;;7.06;nan
64675;BME280;51090;51.512;11.332;2023-04-28T00:54:07;99507.44;;;7.06;nan
64675;BME280;51090;51.512;11.332;2023-04-28T00:56:34;99502.00;;;7.08;nan
64675;BME280;51090;51.512;11.332;2023-04-28T00:59:01;99506.13;;;7.10;nan
64675;BME280;51090;51.512;11.332;2023-04-28T01:01:27;99503.34;;;7.12;nan
64675;BME280;51090;51.512;11.332;2023-04-28T01:03:53;99509.13;;;7.15;nan
64675;BME280;51090;51.512;11.332;2023-04-28T01:06:19;99502.69;;;7.18;nan
64675;BME280;51090;51.512;11.332;2023-04-28T01:08:48;99510.94;;;7.23;nan
64675;BME280;51090;51.512;11.332;2023-04-28T01:11:15;99507.31;;;7.24;nan
64675;BME280;51090;51.512;11.332;2023-04-28T01:13:41;99503.38;;;7.28;nan
64675;BME280;51090;51.512;11.332;2023-04-28T01:16:08;99500.75;;;7.28;nan
64675;BME280;51090;51.512;11.332;2023-04-28T01:18:34;99499.25;;;7.34;nan
64675;BME280;51090;51.512;11.332;2023-04-28T01:21:00;99504.06;;;7.38;nan
64675;BME280;51090;51.512;11.332;2023-04-28T01:23:26;99497.97;;;7.38;nan
64675;BME280;51090;51.512;11.332;2023-04-28T01:25:52;99502.25;;;7.39;nan
64675;BME280;51090;51.512;11.332;2023-04-28T01:28:18;99493.50;;;7.38;nan
64675;BME280;51090;51.512;11.332;2023-04-28T01:30:44;99487.91;;;7.41;nan
64675;BME280;51090;51.512;11.332;2023-04-28T01:33:10;99492.69;;;7.46;nan
64675;BME280;51090;51.512;11.332;2023-04-28T01:35:36;99486.25;;;7.49;nan
64675;BME280;51090;51.512;11.332;2023-04-28T01:38:02;99480.00;;;7.50;nan
64675;BME280;51090;51.512;11.332;2023-04-28T01:40:29;99483.28;;;7.52;nan
64675;BME280;51090;51.512;11.332;2023-04-28T01:42:55;99490.25;;;7.53;nan
64675;BME280;51090;51.512;11.332;2023-04-28T01:45:21;99487.41;;;7.54;nan
64675;BME280;51090;51.512;11.332;2023-04-28T01:47:47;99485.44;;;7.56;nan
64675;BME280;51090;51.512;11.332;2023-04-28T01:50:13;99487.94;;;7.58;nan
64675;BME280;51090;51.512;11.332;2023-04-28T01:52:39;99477.19;;;7.59;nan
64675;BME280;51090;51.512;11.332;2023-04-28T01:55:06;99479.50;;;7.62;nan
64675;BME280;51090;51.512;11.332;2023-04-28T01:57:32;99477.38;;;7.58;nan
64675;BME280;51090;51.512;11.332;2023-04-28T02:00:00;99461.53;;;7.58;nan
64675;BME280;51090;51.512;11.332;2023-04-28T02:02:26;99455.59;;;7.56;nan
64675;BME280;51090;51.512;11.332;2023-04-28T02:04:52;99447.69;;;7.56;nan
64675;BME280;51090;51.512;11.332;2023-04-28T02:07:18;99451.13;;;7.56;nan
64675;BME280;51090;51.512;11.332;2023-04-28T02:09:44;99450.31;;;7.48;nan
64675;BME280;51090;51.512;11.332;2023-04-28T02:12:11;99450.16;;;7.41;nan
64675;BME280;51090;51.512;11.332;2023-04-28T02:14:37;99448.66;;;7.38;nan
64675;BME280;51090;51.512;11.332;2023-04-28T02:17:03;99445.53;;;7.35;nan
64675;BME280;51090;51.512;11.332;2023-04-28T02:19:30;99437.28;;;7.30;nan
64675;BME280;51090;51.512;11.332;2023-04-28T02:21:56;99442.03;;;7.26;nan
64675;BME280;51090;51.512;11.332;2023-04-28T02:24:22;99445.03;;;7.31;nan
64675;BME280;51090;51.512;11.332;2023-04-28T02:26:48;99464.47;;;7.88;nan
64675;BME280;51090;51.512;11.332;2023-04-28T02:29:14;99446.50;;;7.26;nan
64675;BME280;51090;51.512;11.332;2023-04-28T02:31:40;99462.84;;;7.87;nan
64675;BME280;51090;51.512;11.332;2023-04-28T02:34:06;99437.25;;;7.22;nan
64675;BME280;51090;51.512;11.332;2023-04-28T02:36:32;99439.06;;;7.21;nan
64675;BME280;51090;51.512;11.332;2023-04-28T02:38:58;99433.16;;;7.27;nan
64675;BME280;51090;51.512;11.332;2023-04-28T02:41:24;99445.53;;;7.43;nan
64675;BME280;51090;51.512;11.332;2023-04-28T02:43:51;99439.44;;;7.43;nan
64675;BME280;51090;51.512;11.332;2023-04-28T02:46:17;99431.81;;;7.39;nan
64675;BME280;51090;51.512;11.332;2023-04-28T02:48:43;99431.50;;;7.34;nan
64675;BME280;51090;51.512;11.332;2023-04-28T02:51:09;99421.63;;;7.28;nan
64675;BME280;51090;51.512;11.332;2023-04-28T02:53:35;99412.38;;;7.24;nan
64675;BME280;51090;51.512;11.332;2023-04-28T02:56:01;99413.22;;;7.25;nan
64675;BME280;51090;51.512;11.332;2023-04-28T02:58:29;99402.16;;;7.05;nan
64675;BME280;51090;51.512;11.332;2023-04-28T03:00:55;99413.69;;;7.12;nan
64675;BME280;51090;51.512;11.332;2023-04-28T03:03:21;99407.56;;;7.11;nan
64675;BME280;51090;51.512;11.332;2023-04-28T03:05:47;99410.22;;;7.11;nan
64675;BME280;51090;51.512;11.332;2023-04-28T03:08:13;99403.44;;;7.09;nan
64675;BME280;51090;51.512;11.332;2023-04-28T03:10:39;99393.91;;;7.08;nan
64675;BME280;51090;51.512;11.332;2023-04-28T03:13:05;99380.72;;;7.08;nan
64675;BME280;51090;51.512;11.332;2023-04-28T03:15:32;99381.53;;;7.08;nan
64675;BME280;51090;51.512;11.332;2023-04-28T03:17:58;99370.50;;;7.05;nan
64675;BME280;51090;51.512;11.332;2023-04-28T03:20:24;99375.44;;;7.08;nan
64675;BME280;51090;51.512;11.332;2023-04-28T03:22:50;99375.44;;;7.08;nan
64675;BME280;51090;51.512;11.332;2023-04-28T03:25:16;99382.53;;;7.07;nan
64675;BME280;51090;51.512;11.332;2023-04-28T03:27:42;99372.97;;;7.06;nan
64675;BME280;51090;51.512;11.332;2023-04-28T03:30:08;99366.53;;;7.01;nan
64675;BME280;51090;51.512;11.332;2023-04-28T03:32:35;99358.97;;;6.97;nan
64675;BME280;51090;51.512;11.332;2023-04-28T03:35:01;99355.16;;;6.92;nan
64675;BME280;51090;51.512;11.332;2023-04-28T03:37:27;99356.47;;;6.96;nan
64675;BME280;51090;51.512;11.332;2023-04-28T03:39:53;99348.75;;;6.94;nan
64675;BME280;51090;51.512;11.332;2023-04-28T03:42:19;99345.59;;;6.91;nan
64675;BME280;51090;51.512;11.332;2023-04-28T03:44:45;99354.00;;;6.86;nan
64675;BME280;51090;51.512;11.332;2023-04-28T03:47:11;99348.69;;;6.78;nan
64675;BME280;51090;51.512;11.332;2023-04-28T03:49:38;99349.56;;;6.79;nan
64675;BME280;51090;51.512;11.332;2023-04-28T03:52:04;99346.25;;;6.85;nan
64675;BME280;51090;51.512;11.332;2023-04-28T03:54:30;99342.81;;;6.84;nan
64675;BME280;51090;51.512;11.332;2023-04-28T03:56:56;99343.28;;;6.88;nan
64675;BME280;51090;51.512;11.332;2023-04-28T03:59:23;99337.03;;;6.89;nan
64675;BME280;51090;51.512;11.332;2023-04-28T04:01:49;99337.69;;;6.91;nan
64675;BME280;51090;51.512;11.332;2023-04-28T04:04:15;99333.06;;;6.93;nan
64675;BME280;51090;51.512;11.332;2023-04-28T04:06:41;99333.59;;;6.96;nan
64675;BME280;51090;51.512;11.332;2023-04-28T04:09:07;99329.94;;;7.06;nan
64675;BME280;51090;51.512;11.332;2023-04-28T04:11:34;99326.84;;;7.02;nan
64675;BME280;51090;51.512;11.332;2023-04-28T04:14:00;99336.56;;;7.02;nan
64675;BME280;51090;51.512;11.332;2023-04-28T04:16:26;99323.19;;;7.11;nan
64675;BME280;51090;51.512;11.332;2023-04-28T04:18:52;99318.75;;;7.20;nan
64675;BME280;51090;51.512;11.332;2023-04-28T04:21:18;99318.25;;;7.33;nan
64675;BME280;51090;51.512;11.332;2023-04-28T04:23:44;99321.34;;;7.45;nan
64675;BME280;51090;51.512;11.332;2023-04-28T04:26:10;99319.19;;;7.56;nan
64675;BME280;51090;51.512;11.332;2023-04-28T04:28:36;99319.84;;;7.58;nan
64675;BME280;51090;51.512;11.332;2023-04-28T04:31:02;99315.38;;;7.67;nan
64675;BME280;51090;51.512;11.332;2023-04-28T04:33:28;99310.91;;;7.76;nan
64675;BME280;51090;51.512;11.332;2023-04-28T04:35:54;99309.38;;;7.90;nan
64675;BME280;51090;51.512;11.332;2023-04-28T04:38:21;99309.13;;;8.07;nan
64675;BME280;51090;51.512;11.332;2023-04-28T04:40:47;99311.88;;;8.22;nan
64675;BME280;51090;51.512;11.332;2023-04-28T04:43:13;99310.81;;;8.32;nan
64675;BME280;51090;51.512;11.332;2023-04-28T04:45:39;99312.47;;;8.41;nan
64675;BME280;51090;51.512;11.332;2023-04-28T04:48:05;99301.84;;;8.49;nan
64675;BME280;51090;51.512;11.332;2023-04-28T04:50:31;99303.47;;;8.50;nan
64675;BME280;51090;51.512;11.332;2023-04-28T04:52:57;99300.81;;;8.58;nan
64675;BME280;51090;51.512;11.332;2023-04-28T04:55:24;99301.28;;;8.62;nan
64675;BME280;51090;51.512;11.332;2023-04-28T04:57:50;99296.94;;;8.69;nan
64675;BME280;51090;51.512;11.332;2023-04-28T05:00:16;99302.31;;;8.76;nan
64675;BME280;51090;51.512;11.332;2023-04-28T05:02:43;99296.88;;;8.77;nan
64675;BME280;51090;51.512;11.332;2023-04-28T05:05:09;99294.16;;;8.85;nan
64675;BME280;51090;51.512;11.332;2023-04-28T05:07:35;99287.34;;;8.91;nan
64675;BME280;51090;51.512;11.332;2023-04-28T05:10:01;99280.53;;;8.97;nan
64675;BME280;51090;51.512;11.332;2023-04-28T05:12:28;99285.56;;;9.06;nan
64675;BME280;51090;51.512;11.332;2023-04-28T05:14:54;99281.84;;;9.15;nan
64675;BME280;51090;51.512;11.332;2023-04-28T05:17:20;99271.53;;;9.21;nan
64675;BME280;51090;51.512;11.332;2023-04-28T05:19:46;99275.19;;;9.34;nan
64675;BME280;51090;51.512;11.332;2023-04-28T05:22:12;99279.72;;;9.64;nan
64675;BME280;51090;51.512;11.332;2023-04-28T05:24:38;99274.31;;;9.72;nan
64675;BME280;51090;51.512;11.332;2023-04-28T05:27:04;99266.09;;;9.81;nan
64675;BME280;51090;51.512;11.332;2023-04-28T05:29:30;99277.03;;;10.08;nan
64675;BME280;51090;51.512;11.332;2023-04-28T05:31:55;99280.56;;;10.15;nan
64675;BME280;51090;51.512;11.332;2023-04-28T05:34:21;99280.28;;;10.25;nan
64675;BME280;51090;51.512;11.332;2023-04-28T05:36:47;99257.00;;;10.35;nan
64675;BME280;51090;51.512;11.332;2023-04-28T05:39:12;99247.47;;;10.41;nan
64675;BME280;51090;51.512;11.332;2023-04-28T05:41:38;99263.78;;;10.66;nan
64675;BME280;51090;51.512;11.332;2023-04-28T05:44:07;99245.22;;;10.66;nan
64675;BME280;51090;51.512;11.332;2023-04-28T05:46:33;99273.63;;;10.94;nan
64675;BME280;51090;51.512;11.332;2023-04-28T05:48:58;99271.31;;;11.05;nan
64675;BME280;51090;51.512;11.332;2023-04-28T05:51:24;99270.72;;;11.10;nan
64675;BME280;51090;51.512;11.332;2023-04-28T05:53:51;99276.31;;;11.22;nan
64675;BME280;51090;51.512;11.332;2023-04-28T05:56:17;99258.38;;;11.24;nan
64675;BME280;51090;51.512;11.332;2023-04-28T05:58:43;99260.13;;;11.38;nan
64675;BME280;51090;51.512;11.332;2023-04-28T06:01:10;99250.63;;;11.57;nan
64675;BME280;51090;51.512;11.332;2023-04-28T06:03:36;99253.75;;;11.67;nan
64675;BME280;51090;51.512;11.332;2023-04-28T06:06:02;99234.16;;;11.75;nan
64675;BME280;51090;51.512;11.332;2023-04-28T06:08:27;99256.38;;;12.02;nan
64675;BME280;51090;51.512;11.332;2023-04-28T06:10:53;99259.28;;;12.14;nan
64675;BME280;51090;51.512;11.332;2023-04-28T06:13:19;99252.97;;;12.22;nan
64675;BME280;51090;51.512;11.332;2023-04-28T06:15:45;99251.38;;;12.34;nan
64675;BME280;51090;51.512;11.332;2023-04-28T06:18:10;99241.75;;;12.33;nan
64675;BME280;51090;51.512;11.332;2023-04-28T06:20:36;99261.50;;;12.85;nan
64675;BME280;51090;51.512;11.332;2023-04-28T06:23:02;99233.00;;;12.52;nan
64675;BME280;51090;51.512;11.332;2023-04-28T06:25:28;99208.84;;;12.47;nan
64675;BME280;51090;51.512;11.332;2023-04-28T06:27:54;99221.34;;;12.60;nan
64675;BME280;51090;51.512;11.332;2023-04-28T06:30:22;99227.28;;;12.62;nan
64675;BME280;51090;51.512;11.332;2023-04-28T06:32:47;99235.88;;;12.71;nan
64675;BME280;51090;51.512;11.332;2023-04-28T06:35:15;99246.53;;;12.77;nan
64675;BME280;51090;51.512;11.332;2023-04-28T06:37:41;99242.03;;;12.78;nan
64675;BME280;51090;51.512;11.332;2023-04-28T06:40:08;99228.94;;;12.70;nan
64675;BME280;51090;51.512;11.332;2023-04-28T06:42:34;99230.97;;;12.68;nan
64675;BME280;51090;51.512;11.332;2023-04-28T06:44:59;99257.19;;;13.31;nan
64675;BME280;51090;51.512;11.332;2023-04-28T06:47:25;99254.53;;;13.37;nan
64675;BME280;51090;51.512;11.332;2023-04-28T06:49:51;99244.84;;;13.56;nan
64675;BME280;51090;51.512;11.332;2023-04-28T06:52:16;99251.59;;;13.72;nan
64675;BME280;51090;51.512;11.332;2023-04-28T06:54:42;99244.31;;;13.99;nan
64675;BME280;51090;51.512;11.332;2023-04-28T06:57:08;99245.91;;;14.13;nan
64675;BME280;51090;51.512;11.332;2023-04-28T06:59:34;99236.56;;;14.29;nan
64675;BME280;51090;51.512;11.332;2023-04-28T07:02:00;99219.50;;;13.99;nan
64675;BME280;51090;51.512;11.332;2023-04-28T07:04:25;99217.56;;;14.19;nan
64675;BME280;51090;51.512;11.332;2023-04-28T07:06:51;99218.34;;;14.26;nan
64675;BME280;51090;51.512;11.332;2023-04-28T07:09:18;99210.06;;;14.34;nan
64675;BME280;51090;51.512;11.332;2023-04-28T07:11:44;99222.34;;;14.42;nan
64675;BME280;51090;51.512;11.332;2023-04-28T07:14:09;99218.38;;;14.51;nan
64675;BME280;51090;51.512;11.332;2023-04-28T07:16:35;99215.66;;;14.90;nan
64675;BME280;51090;51.512;11.332;2023-04-28T07:19:01;99219.25;;;15.02;nan
64675;BME280;51090;51.512;11.332;2023-04-28T07:21:27;99226.16;;;15.10;nan
64675;BME280;51090;51.512;11.332;2023-04-28T07:23:53;99223.56;;;15.03;nan
64675;BME280;51090;51.512;11.332;2023-04-28T07:26:22;99215.75;;;15.01;nan
64675;BME280;51090;51.512;11.332;2023-04-28T07:28:48;99223.28;;;15.11;nan
64675;BME280;51090;51.512;11.332;2023-04-28T07:31:14;99214.69;;;15.28;nan
64675;BME280;51090;51.512;11.332;2023-04-28T07:33:40;99211.47;;;15.44;nan
64675;BME280;51090;51.512;11.332;2023-04-28T07:36:06;99208.50;;;15.52;nan
64675;BME280;51090;51.512;11.332;2023-04-28T07:38:34;99174.56;;;15.34;nan
64675;BME280;51090;51.512;11.332;2023-04-28T07:41:01;99218.41;;;15.70;nan
64675;BME280;51090;51.512;11.332;2023-04-28T07:43:27;99205.69;;;15.84;nan
64675;BME280;51090;51.512;11.332;2023-04-28T07:45:52;99219.69;;;16.28;nan
64675;BME280;51090;51.512;11.332;2023-04-28T07:48:18;99209.13;;;16.33;nan
64675;BME280;51090;51.512;11.332;2023-04-28T07:50:44;99201.97;;;16.15;nan
64675;BME280;51090;51.512;11.332;2023-04-28T07:53:09;99206.19;;;16.23;nan
64675;BME280;51090;51.512;11.332;2023-04-28T07:55:35;99213.47;;;16.34;nan
64675;BME280;51090;51.512;11.332;2023-04-28T07:58:01;99211.06;;;16.44;nan
64675;BME280;51090;51.512;11.332;2023-04-28T08:00:27;99201.63;;;16.53;nan
64675;BME280;51090;51.512;11.332;2023-04-28T08:02:53;99210.94;;;16.51;nan
64675;BME280;51090;51.512;11.332;2023-04-28T08:05:19;99198.09;;;16.41;nan
64675;BME280;51090;51.512;11.332;2023-04-28T08:07:44;99201.09;;;16.33;nan
64675;BME280;51090;51.512;11.332;2023-04-28T08:10:10;99203.44;;;16.29;nan
64675;BME280;51090;51.512;11.332;2023-04-28T08:12:37;99213.88;;;16.31;nan
64675;BME280;51090;51.512;11.332;2023-04-28T08:15:03;99198.53;;;16.26;nan
64675;BME280;51090;51.512;11.332;2023-04-28T08:17:29;99205.84;;;16.19;nan
64675;BME280;51090;51.512;11.332;2023-04-28T08:19:54;99187.97;;;16.01;nan
64675;BME280;51090;51.512;11.332;2023-04-28T08:22:20;99202.38;;;16.00;nan
64675;BME280;51090;51.512;11.332;2023-04-28T08:24:46;99202.63;;;15.99;nan
64675;BME280;51090;51.512;11.332;2023-04-28T08:27:11;99214.63;;;16.08;nan
64675;BME280;51090;51.512;11.332;2023-04-28T08:29:37;99199.91;;;16.17;nan
64675;BME280;51090;51.512;11.332;2023-04-28T08:32:04;99205.06;;;16.30;nan
64675;BME280;51090;51.512;11.332;2023-04-28T08:34:32;99205.44;;;16.46;nan
64675;BME280;51090;51.512;11.332;2023-04-28T08:36:58;99195.94;;;16.62;nan
64675;BME280;51090;51.512;11.332;2023-04-28T08:39:24;99187.47;;;16.76;nan
64675;BME280;51090;51.512;11.332;2023-04-28T08:41:51;99193.34;;;16.85;nan
64675;BME280;51090;51.512;11.332;2023-04-28T08:44:17;99192.06;;;17.00;nan
64675;BME280;51090;51.512;11.332;2023-04-28T08:46:45;99207.06;;;17.48;nan
64675;BME280;51090;51.512;11.332;2023-04-28T08:49:15;99185.53;;;17.31;nan
64675;BME280;51090;51.512;11.332;2023-04-28T08:51:49;99189.13;;;17.36;nan
64675;BME280;51090;51.512;11.332;2023-04-28T08:54:16;99189.47;;;17.40;nan
64675;BME280;51090;51.512;11.332;2023-04-28T08:56:42;99195.97;;;17.44;nan
64675;BME280;51090;51.512;11.332;2023-04-28T08:59:11;99194.38;;;17.31;nan
64675;BME280;51090;51.512;11.332;2023-04-28T09:01:37;99194.72;;;17.23;nan
64675;BME280;51090;51.512;11.332;2023-04-28T09:04:04;99192.50;;;17.08;nan
64675;BME280;51090;51.512;11.332;2023-04-28T09:06:35;99182.28;;;16.93;nan
64675;BME280;51090;51.512;11.332;2023-04-28T09:09:20;99186.47;;;16.89;nan
64675;BME280;51090;51.512;11.332;2023-04-28T09:14:21;99172.91;;;16.61;nan
64675;BME280;51090;51.512;11.332;2023-04-28T09:16:48;99174.28;;;16.51;nan
64675;BME280;51090;51.512;11.332;2023-04-28T09:19:15;99181.59;;;16.44;nan
64675;BME280;51090;51.512;11.332;2023-04-28T09:21:47;99177.28;;;16.31;nan
64675;BME280;51090;51.512;11.332;2023-04-28T09:24:34;99170.47;;;16.17;nan
64675;BME280;51090;51.512;11.332;2023-04-28T09:27:02;99156.81;;;16.07;nan
64675;BME280;51090;51.512;11.332;2023-04-28T09:29:32;99152.00;;;15.97;nan
64675;BME280;51090;51.512;11.332;2023-04-28T09:32:21;99153.66;;;15.98;nan
64675;BME280;51090;51.512;11.332;2023-04-28T09:34:52;99141.09;;;15.99;nan
64675;BME280;51090;51.512;11.332;2023-04-28T09:37:24;99129.47;;;16.05;nan
64675;BME280;51090;51.512;11.332;2023-04-28T09:39:53;99123.47;;;16.09;nan
64675;BME280;51090;51.512;11.332;2023-04-28T09:45:05;99144.13;;;16.02;nan
64675;BME280;51090;51.512;11.332;2023-04-28T09:47:32;99167.38;;;16.32;nan
64675;BME280;51090;51.512;11.332;2023-04-28T09:50:03;99147.66;;;15.84;nan
64675;BME280;51090;51.512;11.332;2023-04-28T09:52:29;99149.25;;;15.74;nan
64675;BME280;51090;51.512;11.332;2023-04-28T09:54:56;99137.38;;;15.70;nan
64675;BME280;51090;51.512;11.332;2023-04-28T09:57:23;99130.38;;;15.68;nan
64675;BME280;51090;51.512;11.332;2023-04-28T09:59:51;99127.25;;;15.72;nan
64675;BME280;51090;51.512;11.332;2023-04-28T10:02:19;99144.03;;;15.79;nan
64675;BME280;51090;51.512;11.332;2023-04-28T10:04:49;99141.16;;;15.80;nan
64675;BME280;51090;51.512;11.332;2023-04-28T10:07:20;99145.13;;;15.89;nan
64675;BME280;51090;51.512;11.332;2023-04-28T10:09:47;99170.56;;;16.52;nan
64675;BME280;51090;51.512;11.332;2023-04-28T10:12:17;99177.63;;;16.89;nan
64675;BME280;51090;51.512;11.332;2023-04-28T10:14:44;99164.91;;;17.19;nan
64675;BME280;51090;51.512;11.332;2023-04-28T10:17:12;99167.28;;;17.56;nan
64675;BME280;51090;51.512;11.332;2023-04-28T10:19:40;99165.63;;;17.67;nan
64675;BME280;51090;51.512;11.332;2023-04-28T10:27:41;99136.94;;;17.27;nan
64675;BME280;51090;51.512;11.332;2023-04-28T10:30:17;99150.94;;;17.70;nan
64675;BME280;51090;51.512;11.332;2023-04-28T10:32:43;99151.31;;;18.02;nan
64675;BME280;51090;51.512;11.332;2023-04-28T10:38:17;99121.53;;;17.75;nan
64675;BME280;51090;51.512;11.332;2023-04-28T10:40:44;99120.00;;;17.79;nan
64675;BME280;51090;51.512;11.332;2023-04-28T10:43:32;99119.03;;;17.97;nan
64675;BME280;51090;51.512;11.332;2023-04-28T10:48:50;99107.53;;;18.30;nan
64675;BME280;51090;51.512;11.332;2023-04-28T10:56:12;99107.19;;;19.16;nan
64675;BME280;51090;51.512;11.332;2023-04-28T10:58:44;99043.53;;;18.78;nan
64675;BME280;51090;51.512;11.332;2023-04-28T11:01:26;99095.72;;;18.99;nan
64675;BME280;51090;51.512;11.332;2023-04-28T11:04:06;99087.38;;;18.78;nan
64675;BME280;51090;51.512;11.332;2023-04-28T11:06:43;99100.84;;;18.66;nan
64675;BME280;51090;51.512;11.332;2023-04-28T11:16:52;99095.91;;;18.58;nan
64675;BME280;51090;51.512;11.332;2023-04-28T11:19:30;99092.56;;;18.68;nan
64675;BME280;51090;51.512;11.332;2023-04-28T11:21:58;99091.91;;;18.78;nan
64675;BME280;51090;51.512;11.332;2023-04-28T11:24:25;99086.50;;;18.95;nan
64675;BME280;51090;51.512;11.332;2023-04-28T11:26:52;99083.84;;;19.17;nan
64675;BME280;51090;51.512;11.332;2023-04-28T11:29:19;99078.72;;;19.37;nan
64675;BME280;51090;51.512;11.332;2023-04-28T11:31:55;99088.44;;;19.65;nan
64675;BME280;51090;51.512;11.332;2023-04-28T11:34:21;99074.25;;;19.70;nan
64675;BME280;51090;51.512;11.332;2023-04-28T11:36:47;99084.44;;;19.68;nan
64675;BME280;51090;51.512;11.332;2023-04-28T11:39:13;99077.81;;;19.53;nan
64675;BME280;51090;51.512;11.332;2023-04-28T11:41:42;99071.06;;;19.29;nan
64675;BME280;51090;51.512;11.332;2023-04-28T11:44:20;99075.84;;;19.22;nan
64675;BME280;51090;51.512;11.332;2023-04-28T11:46:59;99072.06;;;19.01;nan
64675;BME280;51090;51.512;11.332;2023-04-28T11:49:26;99075.84;;;18.83;nan
64675;BME280;51090;51.512;11.332;2023-04-28T11:51:54;99072.75;;;18.74;nan
64675;BME280;51090;51.512;11.332;2023-04-28T11:54:25;99066.94;;;18.60;nan
64675;BME280;51090;51.512;11.332;2023-04-28T11:56:52;99080.75;;;18.52;nan
64675;BME280;51090;51.512;11.332;2023-04-28T11:59:27;99078.47;;;18.44;nan
64675;BME280;51090;51.512;11.332;2023-04-28T12:01:58;99066.63;;;18.40;nan
64675;BME280;51090;51.512;11.332;2023-04-28T12:07:11;99082.53;;;18.80;nan
64675;BME280;51090;51.512;11.332;2023-04-28T12:09:44;99063.88;;;18.90;nan
64675;BME280;51090;51.512;11.332;2023-04-28T12:12:31;99055.00;;;18.90;nan
64675;BME280;51090;51.512;11.332;2023-04-28T12:15:00;99067.69;;;18.95;nan
64675;BME280;51090;51.512;11.332;2023-04-28T12:17:40;99066.34;;;18.75;nan
64675;BME280;51090;51.512;11.332;2023-04-28T12:20:09;99060.03;;;18.47;nan
64675;BME280;51090;51.512;11.332;2023-04-28T12:23:02;99061.09;;;18.30;nan
64675;BME280;51090;51.512;11.332;2023-04-28T12:25:28;99052.69;;;18.26;nan
64675;BME280;51090;51.512;11.332;2023-04-28T12:28:05;99053.66;;;18.37;nan
64675;BME280;51090;51.512;11.332;2023-04-28T12:30:34;99051.06;;;18.42;nan
64675;BME280;51090;51.512;11.332;2023-04-28T12:33:03;99047.84;;;18.40;nan
64675;BME280;51090;51.512;11.332;2023-04-28T12:35:29;99040.66;;;18.28;nan
64675;BME280;51090;51.512;11.332;2023-04-28T12:37:56;99044.25;;;18.17;nan
64675;BME280;51090;51.512;11.332;2023-04-28T12:40:23;99031.41;;;18.02;nan
64675;BME280;51090;51.512;11.332;2023-04-28T12:42:49;99035.56;;;17.93;nan
64675;BME280;51090;51.512;11.332;2023-04-28T12:45:15;99030.53;;;17.68;nan
64675;BME280;51090;51.512;11.332;2023-04-28T12:47:41;99047.09;;;17.65;nan
64675;BME280;51090;51.512;11.332;2023-04-28T12:50:07;99039.22;;;17.47;nan
64675;BME280;51090;51.512;11.332;2023-04-28T12:52:33;99029.75;;;17.27;nan
64675;BME280;51090;51.512;11.332;2023-04-28T12:55:01;99036.19;;;17.14;nan
64675;BME280;51090;51.512;11.332;2023-04-28T12:57:26;99033.91;;;17.06;nan
64675;BME280;51090;51.512;11.332;2023-04-28T12:59:53;99025.59;;;17.08;nan
64675;BME280;51090;51.512;11.332;2023-04-28T13:02:20;99033.75;;;17.13;nan
64675;BME280;51090;51.512;11.332;2023-04-28T13:04:46;99011.75;;;17.11;nan
64675;BME280;51090;51.512;11.332;2023-04-28T13:07:13;99014.50;;;17.28;nan
64675;BME280;51090;51.512;11.332;2023-04-28T13:09:40;99000.66;;;17.19;nan
64675;BME280;51090;51.512;11.332;2023-04-28T13:12:07;99013.19;;;17.30;nan
64675;BME280;51090;51.512;11.332;2023-04-28T13:14:33;99008.41;;;17.32;nan
64675;BME280;51090;51.512;11.332;2023-04-28T13:16:59;99009.53;;;17.36;nan
64675;BME280;51090;51.512;11.332;2023-04-28T13:19:24;99008.84;;;17.41;nan
64675;BME280;51090;51.512;11.332;2023-04-28T13:21:51;98985.03;;;17.16;nan
64675;BME280;51090;51.512;11.332;2023-04-28T13:24:17;98986.34;;;17.13;nan
64675;BME280;51090;51.512;11.332;2023-04-28T13:26:42;98976.47;;;17.14;nan
64675;BME280;51090;51.512;11.332;2023-04-28T13:29:11;98999.28;;;17.45;nan
64675;BME280;51090;51.512;11.332;2023-04-28T13:31:37;98995.13;;;17.54;nan
64675;BME280;51090;51.512;11.332;2023-04-28T13:34:02;98991.81;;;17.64;nan
64675;BME280;51090;51.512;11.332;2023-04-28T13:36:33;98986.81;;;17.68;nan
64675;BME280;51090;51.512;11.332;2023-04-28T13:39:00;98969.78;;;17.62;nan
64675;BME280;51090;51.512;11.332;2023-04-28T13:41:26;98964.88;;;17.71;nan
64675;BME280;51090;51.512;11.332;2023-04-28T13:43:52;98982.06;;;18.03;nan
64675;BME280;51090;51.512;11.332;2023-04-28T13:46:19;98982.91;;;18.26;nan